sensor_id;sensor_type;location;lat;lon;timestamp;pressure;altitude;pressure_sealevel;temperature;humidity
48644;BME280;34928;37.302;-121.984;2023-02-22T00:05:18;100170.0;;;26.46;17.32
48644;BME280;34928;37.302;-121.984;2023-02-22T00:15:24;100163.0;;;26.50;16.92
48644;BME280;34928;37.302;-121.984;2023-02-22T00:25:27;100146.0;;;26.43;16.64
48644;BME280;34928;37.302;-121.984;2023-02-22T00:35:32;100147.0;;;26.39;16.67
48644;BME280;34928;37.302;-121.984;2023-02-22T00:45:37;100138.0;;;26.22;16.37
48644;BME280;34928;37.302;-121.984;2023-02-22T00:55:42;100155.0;;;26.18;16.28
48644;BME280;34928;37.302;-121.984;2023-02-22T01:05:47;100146.0;;;26.17;16.33
48644;BME280;34928;37.302;-121.984;2023-02-22T01:15:52;100139.0;;;25.90;16.39
48644;BME280;34928;37.302;-121.984;2023-02-22T01:25:57;100163.0;;;25.74;16.48
48644;BME280;34928;37.302;-121.984;2023-02-22T01:36:02;100160.0;;;26.11;16.32
48644;BME280;34928;37.302;-121.984;2023-02-22T01:46:20;100166.0;;;26.26;16.21
48644;BME280;34928;37.302;-121.984;2023-02-22T01:56:30;100165.0;;;26.84;15.92
48644;BME280;34928;37.302;-121.984;2023-02-22T02:06:38;100105.0;;;26.99;15.36
48644;BME280;34928;37.302;-121.984;2023-02-22T02:16:44;100086.0;;;27.15;15.84
48644;BME280;34928;37.302;-121.984;2023-02-22T02:27:09;100096.0;;;27.25;16.07
48644;BME280;34928;37.302;-121.984;2023-02-22T02:37:21;100124.0;;;26.70;16.05
48644;BME280;34928;37.302;-121.984;2023-02-22T02:47:35;100119.0;;;26.73;16.33
48644;BME280;34928;37.302;-121.984;2023-02-22T02:57:43;100163.0;;;26.86;16.38
48644;BME280;34928;37.302;-121.984;2023-02-22T03:07:56;100169.0;;;27.02;16.20
48644;BME280;34928;37.302;-121.984;2023-02-22T03:18:04;100189.0;;;26.89;16.84
48644;BME280;34928;37.302;-121.984;2023-02-22T03:28:15;100176.0;;;27.30;16.52
48644;BME280;34928;37.302;-121.984;2023-02-22T03:38:24;100168.0;;;27.08;16.55
48644;BME280;34928;37.302;-121.984;2023-02-22T03:48:38;100160.0;;;27.19;16.61
48644;BME280;34928;37.302;-121.984;2023-02-22T03:58:49;100186.0;;;26.96;16.53
48644;BME280;34928;37.302;-121.984;2023-02-22T04:08:52;100181.0;;;27.36;16.62
48644;BME280;34928;37.302;-121.984;2023-02-22T04:18:57;100173.0;;;27.00;16.59
48644;BME280;34928;37.302;-121.984;2023-02-22T04:29:03;100168.0;;;27.24;16.68
48644;BME280;34928;37.302;-121.984;2023-02-22T04:39:07;100171.0;;;27.14;16.55
48644;BME280;34928;37.302;-121.984;2023-02-22T04:49:12;100169.0;;;27.38;16.82
48644;BME280;34928;37.302;-121.984;2023-02-22T04:59:17;100143.0;;;27.50;17.57
48644;BME280;34928;37.302;-121.984;2023-02-22T05:09:22;100147.0;;;27.31;17.75
48644;BME280;34928;37.302;-121.984;2023-02-22T05:19:27;100152.0;;;26.72;17.58
48644;BME280;34928;37.302;-121.984;2023-02-22T05:29:32;100144.0;;;27.31;17.19
48644;BME280;34928;37.302;-121.984;2023-02-22T05:39:37;100145.0;;;27.09;16.95
48644;BME280;34928;37.302;-121.984;2023-02-22T05:49:42;100144.0;;;27.26;17.04
48644;BME280;34928;37.302;-121.984;2023-02-22T05:59:47;100159.0;;;27.09;16.72
48644;BME280;34928;37.302;-121.984;2023-02-22T06:09:53;100150.0;;;27.23;16.93
48644;BME280;34928;37.302;-121.984;2023-02-22T06:19:58;100142.0;;;26.85;16.75
48644;BME280;34928;37.302;-121.984;2023-02-22T06:30:03;100148.0;;;27.25;16.85
48644;BME280;34928;37.302;-121.984;2023-02-22T06:40:08;100155.0;;;27.01;16.57
48644;BME280;34928;37.302;-121.984;2023-02-22T06:50:21;100152.0;;;26.90;16.87
48644;BME280;34928;37.302;-121.984;2023-02-22T07:00:30;100143.0;;;26.82;17.19
48644;BME280;34928;37.302;-121.984;2023-02-22T07:10:34;100148.0;;;26.92;17.35
48644;BME280;34928;37.302;-121.984;2023-02-22T07:20:37;100145.0;;;26.53;17.48
48644;BME280;34928;37.302;-121.984;2023-02-22T07:30:43;100166.0;;;26.35;17.46
48644;BME280;34928;37.302;-121.984;2023-02-22T07:40:47;100154.0;;;26.18;17.50
48644;BME280;34928;37.302;-121.984;2023-02-22T07:50:52;100133.0;;;26.02;17.46
48644;BME280;34928;37.302;-121.984;2023-02-22T08:00:58;100128.0;;;25.95;17.44
48644;BME280;34928;37.302;-121.984;2023-02-22T08:11:03;100133.0;;;25.99;17.47
48644;BME280;34928;37.302;-121.984;2023-02-22T08:21:08;100139.0;;;25.95;17.39
48644;BME280;34928;37.302;-121.984;2023-02-22T08:31:12;100126.0;;;25.81;17.37
48644;BME280;34928;37.302;-121.984;2023-02-22T08:41:17;100124.0;;;25.69;17.35
48644;BME280;34928;37.302;-121.984;2023-02-22T08:51:23;100127.0;;;25.59;17.35
48644;BME280;34928;37.302;-121.984;2023-02-22T09:01:27;100115.0;;;25.70;17.38
48644;BME280;34928;37.302;-121.984;2023-02-22T09:11:32;100097.0;;;25.47;17.65
48644;BME280;34928;37.302;-121.984;2023-02-22T09:21:37;100095.0;;;25.15;17.51
48644;BME280;34928;37.302;-121.984;2023-02-22T09:31:42;100098.0;;;25.12;17.71
48644;BME280;34928;37.302;-121.984;2023-02-22T09:41:53;100110.0;;;24.92;17.69
48644;BME280;34928;37.302;-121.984;2023-02-22T09:52:06;100127.0;;;25.26;17.74
48644;BME280;34928;37.302;-121.984;2023-02-22T10:02:20;100160.0;;;24.87;17.77
48644;BME280;34928;37.302;-121.984;2023-02-22T10:12:33;100137.0;;;24.97;17.70
48644;BME280;34928;37.302;-121.984;2023-02-22T10:22:53;100149.0;;;24.82;17.72
48644;BME280;34928;37.302;-121.984;2023-02-22T10:33:07;100158.0;;;24.88;17.80
48644;BME280;34928;37.302;-121.984;2023-02-22T10:43:12;100142.0;;;24.48;17.91
48644;BME280;34928;37.302;-121.984;2023-02-22T10:53:22;100133.0;;;24.41;17.92
48644;BME280;34928;37.302;-121.984;2023-02-22T11:03:27;100135.0;;;24.28;18.05
48644;BME280;34928;37.302;-121.984;2023-02-22T11:13:36;100139.0;;;24.16;18.12
48644;BME280;34928;37.302;-121.984;2023-02-22T11:23:42;100131.0;;;24.34;18.15
48644;BME280;34928;37.302;-121.984;2023-02-22T11:33:52;100120.0;;;24.01;18.18
48644;BME280;34928;37.302;-121.984;2023-02-22T11:44:19;100110.0;;;24.07;18.22
48644;BME280;34928;37.302;-121.984;2023-02-22T11:54:36;100122.0;;;23.90;18.35
48644;BME280;34928;37.302;-121.984;2023-02-22T12:04:54;100128.0;;;23.84;18.24
48644;BME280;34928;37.302;-121.984;2023-02-22T12:15:09;100132.0;;;23.76;18.30
48644;BME280;34928;37.302;-121.984;2023-02-22T12:25:20;100147.0;;;23.81;18.41
48644;BME280;34928;37.302;-121.984;2023-02-22T12:35:29;100156.0;;;22.78;18.07
48644;BME280;34928;37.302;-121.984;2023-02-22T12:45:37;100166.0;;;23.72;18.38
48644;BME280;34928;37.302;-121.984;2023-02-22T12:55:46;100159.0;;;23.67;18.44
48644;BME280;34928;37.302;-121.984;2023-02-22T13:06:07;100152.0;;;23.65;18.39
48644;BME280;34928;37.302;-121.984;2023-02-22T13:16:26;100159.0;;;22.73;18.13
48644;BME280;34928;37.302;-121.984;2023-02-22T13:26:40;100157.0;;;23.32;18.08
48644;BME280;34928;37.302;-121.984;2023-02-22T13:37:01;100155.0;;;24.06;18.09
48644;BME280;34928;37.302;-121.984;2023-02-22T13:57:29;100171.0;;;24.62;18.12
48644;BME280;34928;37.302;-121.984;2023-02-22T14:07:48;100166.0;;;24.98;18.04
48644;BME280;34928;37.302;-121.984;2023-02-22T14:17:58;100177.0;;;25.11;17.77
48644;BME280;34928;37.302;-121.984;2023-02-22T14:28:04;100173.0;;;25.39;17.59
48644;BME280;34928;37.302;-121.984;2023-02-22T14:38:15;100191.0;;;25.45;17.50
48644;BME280;34928;37.302;-121.984;2023-02-22T14:48:28;100194.0;;;25.63;17.42
48644;BME280;34928;37.302;-121.984;2023-02-22T14:58:36;100204.0;;;25.73;17.46
48644;BME280;34928;37.302;-121.984;2023-02-22T15:08:42;100207.0;;;26.12;17.36
48644;BME280;34928;37.302;-121.984;2023-02-22T15:18:51;100232.0;;;25.55;17.29
48644;BME280;34928;37.302;-121.984;2023-02-22T15:28:58;100237.0;;;25.96;17.51
48644;BME280;34928;37.302;-121.984;2023-02-22T15:39:03;100257.0;;;25.68;17.32
48644;BME280;34928;37.302;-121.984;2023-02-22T15:49:19;100271.0;;;26.05;17.33
48644;BME280;34928;37.302;-121.984;2023-02-22T15:59:24;100265.0;;;25.99;17.48
48644;BME280;34928;37.302;-121.984;2023-02-22T16:09:27;100269.0;;;25.99;17.47
48644;BME280;34928;37.302;-121.984;2023-02-22T16:19:37;100272.0;;;25.70;17.32
48644;BME280;34928;37.302;-121.984;2023-02-22T16:29:43;100277.0;;;25.69;17.58
48644;BME280;34928;37.302;-121.984;2023-02-22T16:39:48;100286.0;;;25.55;17.47
48644;BME280;34928;37.302;-121.984;2023-02-22T16:49:52;100294.0;;;25.55;17.45
48644;BME280;34928;37.302;-121.984;2023-02-22T16:59:58;100306.0;;;25.59;17.19
48644;BME280;34928;37.302;-121.984;2023-02-22T17:10:02;100312.0;;;25.03;15.76
48644;BME280;34928;37.302;-121.984;2023-02-22T17:20:09;100317.0;;;25.19;16.66
48644;BME280;34928;37.302;-121.984;2023-02-22T17:30:14;100325.0;;;25.59;16.52
48644;BME280;34928;37.302;-121.984;2023-02-22T17:40:17;100357.0;;;25.21;16.36
48644;BME280;34928;37.302;-121.984;2023-02-22T17:50:23;100343.0;;;25.15;16.24
48644;BME280;34928;37.302;-121.984;2023-02-22T18:00:30;100340.0;;;25.39;16.13
48644;BME280;34928;37.302;-121.984;2023-02-22T18:10:38;100350.0;;;24.88;16.12
48644;BME280;34928;37.302;-121.984;2023-02-22T18:20:43;100346.0;;;25.16;16.15
48644;BME280;34928;37.302;-121.984;2023-02-22T18:30:48;100353.0;;;25.07;16.35
48644;BME280;34928;37.302;-121.984;2023-02-22T18:41:02;100358.0;;;25.33;16.30
48644;BME280;34928;37.302;-121.984;2023-02-22T18:51:09;100379.0;;;25.22;16.25
48644;BME280;34928;37.302;-121.984;2023-02-22T19:01:15;100379.0;;;24.92;16.57
48644;BME280;34928;37.302;-121.984;2023-02-22T19:11:23;100373.0;;;25.05;16.41
48644;BME280;34928;37.302;-121.984;2023-02-22T19:21:29;100364.0;;;25.05;16.43
48644;BME280;34928;37.302;-121.984;2023-02-22T19:31:33;100365.0;;;25.13;16.11
48644;BME280;34928;37.302;-121.984;2023-02-22T19:41:38;100373.0;;;25.04;16.18
48644;BME280;34928;37.302;-121.984;2023-02-22T19:51:42;100360.0;;;24.95;16.48
48644;BME280;34928;37.302;-121.984;2023-02-22T20:01:48;100327.0;;;24.90;16.61
48644;BME280;34928;37.302;-121.984;2023-02-22T20:11:58;100334.0;;;24.92;16.70
48644;BME280;34928;37.302;-121.984;2023-02-22T20:22:02;100319.0;;;24.93;17.11
48644;BME280;34928;37.302;-121.984;2023-02-22T20:32:11;100314.0;;;24.87;17.91
48644;BME280;34928;37.302;-121.984;2023-02-22T20:42:17;100317.0;;;24.82;18.01
48644;BME280;34928;37.302;-121.984;2023-02-22T20:52:23;100312.0;;;24.98;18.01
48644;BME280;34928;37.302;-121.984;2023-02-22T21:02:27;100307.0;;;25.09;18.03
48644;BME280;34928;37.302;-121.984;2023-02-22T21:12:33;100303.0;;;24.78;17.87
48644;BME280;34928;37.302;-121.984;2023-02-22T21:22:38;100298.0;;;25.01;17.68
48644;BME280;34928;37.302;-121.984;2023-02-22T21:32:42;100297.0;;;24.97;17.57
48644;BME280;34928;37.302;-121.984;2023-02-22T21:42:48;100278.0;;;24.77;17.58
48644;BME280;34928;37.302;-121.984;2023-02-22T21:52:53;100273.0;;;24.94;17.55
48644;BME280;34928;37.302;-121.984;2023-02-22T22:02:57;100261.0;;;24.89;17.52
48644;BME280;34928;37.302;-121.984;2023-02-22T22:13:03;100267.0;;;25.14;17.45
48644;BME280;34928;37.302;-121.984;2023-02-22T22:23:07;100273.0;;;24.90;17.49
48644;BME280;34928;37.302;-121.984;2023-02-22T22:33:12;100270.0;;;24.97;17.55
48644;BME280;34928;37.302;-121.984;2023-02-22T22:43:17;100267.0;;;24.85;17.63
48644;BME280;34928;37.302;-121.984;2023-02-22T22:53:22;100264.0;;;24.87;17.63
48644;BME280;34928;37.302;-121.984;2023-02-22T23:03:27;100267.0;;;24.69;17.52
48644;BME280;34928;37.302;-121.984;2023-02-22T23:13:33;100270.0;;;25.11;17.52
48644;BME280;34928;37.302;-121.984;2023-02-22T23:23:37;100267.0;;;24.86;17.33
48644;BME280;34928;37.302;-121.984;2023-02-22T23:33:45;100267.0;;;24.86;17.21
48644;BME280;34928;37.302;-121.984;2023-02-22T23:43:52;100276.0;;;24.50;17.44
48644;BME280;34928;37.302;-121.984;2023-02-22T23:53:57;100276.0;;;24.92;17.33
